Time;durP1;ratioP1;P1;durP2;ratioP2;P2;SDS_P1;SDS_P2;PMS_P1;PMS_P2;Temp;Humidity;BMP_temperature;BMP_pressure;BME280_temperature;BME280_humidity;BME280_pressure;Samples;Min_cycle;Max_cycle;Signal;HPM_P1;HPM_P2
2022/01/16 00:00:23;;;;;;;87.47;42.07;;;0.60;99.90;;;;;;4928827;29;20204;-82
2022/01/16 00:05:26;;;;;;;87.67;41.10;;;0.50;99.90;;;;;;4938827;29;20264;-81
2022/01/16 00:07:53;;;;;;;96.73;43.13;;;0.40;99.90;;;;;;4941347;29;20181;-81
2022/01/16 00:10:19;;;;;;;83.23;41.17;;;0.40;99.90;;;;;;4939832;29;20190;-80
2022/01/16 00:12:49;;;;;;;86.43;41.67;;;0.60;99.90;;;;;;4939382;29;20212;-81
2022/01/16 00:15:16;;;;;;;88.87;41.67;;;0.40;99.90;;;;;;4922619;29;20210;-82
2022/01/16 00:17:53;;;;;;;84.07;40.73;;;0.50;99.90;;;;;;4922660;29;20257;-81
2022/01/16 00:20:20;;;;;;;80.07;39.53;;;0.50;99.90;;;;;;4922859;29;20205;-82
2022/01/16 00:22:47;;;;;;;87.20;41.67;;;0.50;99.90;;;;;;4952827;29;20193;-80
2022/01/16 00:25:14;;;;;;;78.13;39.47;;;0.50;99.90;;;;;;4934498;29;20781;-82
2022/01/16 00:27:40;;;;;;;83.77;39.83;;;0.50;99.90;;;;;;4960002;29;20665;-82
2022/01/16 00:30:06;;;;;;;81.13;41.53;;;0.50;99.90;;;;;;4936855;29;20194;-82
2022/01/16 00:32:32;;;;;;;75.67;39.33;;;0.60;99.90;;;;;;4942171;29;20206;-80
2022/01/16 00:34:57;;;;;;;87.80;40.57;;;0.60;99.90;;;;;;4942336;29;20205;-81
2022/01/16 00:37:23;;;;;;;82.17;40.00;;;0.60;99.90;;;;;;4924049;29;20181;-80
2022/01/16 00:39:49;;;;;;;84.63;40.37;;;0.60;99.90;;;;;;4939810;29;20182;-82
2022/01/16 00:42:14;;;;;;;79.20;40.03;;;0.80;99.90;;;;;;4940876;29;20605;-82
2022/01/16 00:44:40;;;;;;;80.47;39.00;;;0.50;99.90;;;;;;4940595;29;20202;-82
2022/01/16 00:47:07;;;;;;;77.53;38.27;;;0.50;99.90;;;;;;4940987;29;20193;-81
2022/01/16 00:49:36;;;;;;;76.07;39.00;;;0.50;99.90;;;;;;4940079;29;20194;-80
2022/01/16 00:52:02;;;;;;;78.17;38.87;;;0.60;99.90;;;;;;4941591;29;20265;-80
2022/01/16 00:54:28;;;;;;;74.43;38.13;;;0.50;99.90;;;;;;4939918;29;20673;-82
2022/01/16 00:56:53;;;;;;;71.60;37.73;;;0.50;99.90;;;;;;4941092;29;20182;-80
2022/01/16 00:59:19;;;;;;;72.43;37.00;;;0.50;99.90;;;;;;4923327;29;20186;-81
2022/01/16 01:01:45;;;;;;;71.70;36.87;;;0.40;99.90;;;;;;4940948;29;20196;-82
2022/01/16 01:04:11;;;;;;;72.73;37.83;;;0.60;99.90;;;;;;4922631;29;20289;-82
2022/01/16 01:06:37;;;;;;;78.40;39.13;;;0.30;99.90;;;;;;4926195;29;20698;-81
2022/01/16 01:09:02;;;;;;;75.40;38.50;;;0.30;99.90;;;;;;4926435;29;20181;-81
2022/01/16 01:11:30;;;;;;;81.83;38.80;;;0.30;99.90;;;;;;4925920;29;20202;-81
2022/01/16 01:14:13;;;;;;;81.77;39.03;;;0.30;99.90;;;;;;4926561;29;20573;-81
2022/01/16 01:19:18;;;;;;;76.07;37.47;;;0.20;99.90;;;;;;4943594;29;20220;-81
2022/01/16 01:21:44;;;;;;;82.30;39.80;;;0.10;99.90;;;;;;4926152;29;20174;-81
2022/01/16 01:24:09;;;;;;;79.03;39.10;;;0.10;99.90;;;;;;4943328;29;20185;-81
2022/01/16 01:26:43;;;;;;;74.53;38.10;;;0.10;99.90;;;;;;4950045;29;20233;-81
2022/01/16 01:29:09;;;;;;;83.83;39.80;;;0.10;99.90;;;;;;4933366;29;20186;-80
2022/01/16 01:31:35;;;;;;;78.57;38.80;;;0.00;99.90;;;;;;4950059;29;20284;-81
2022/01/16 01:34:00;;;;;;;76.87;39.77;;;0.00;99.90;;;;;;4950181;29;20186;-79
2022/01/16 01:36:26;;;;;;;78.53;39.30;;;0.10;99.90;;;;;;4928810;29;20253;-81
2022/01/16 01:38:52;;;;;;;74.57;36.83;;;0.80;99.90;;;;;;4925524;29;20301;-80
2022/01/16 01:41:19;;;;;;;73.93;39.57;;;0.10;99.90;;;;;;4942086;29;20549;-80
2022/01/16 01:51:57;;;;;;;75.77;38.10;;;-0.10;99.90;;;;;;4942417;29;20220;-81
2022/01/16 01:54:23;;;;;;;74.30;37.60;;;0.00;99.90;;;;;;4942319;29;20186;-81
2022/01/16 01:56:49;;;;;;;76.27;38.60;;;-0.10;99.90;;;;;;4941590;29;20185;-80
2022/01/16 01:59:15;;;;;;;64.33;34.97;;;-0.10;99.90;;;;;;4939162;29;20178;-81
2022/01/16 02:01:40;;;;;;;74.27;37.80;;;-0.20;99.90;;;;;;4937386;29;20531;-80
2022/01/16 02:04:06;;;;;;;77.00;38.10;;;-0.20;99.90;;;;;;4942474;29;20221;-81
2022/01/16 02:06:32;;;;;;;68.37;37.03;;;-0.30;99.90;;;;;;4941539;29;20308;-79
2022/01/16 02:09:01;;;;;;;71.67;37.43;;;-0.30;99.90;;;;;;4924728;29;20354;-80
2022/01/16 02:11:29;;;;;;;67.17;36.33;;;-0.30;99.90;;;;;;4925469;29;20209;-80
2022/01/16 02:28:19;;;;;;;74.83;38.07;;;-0.80;99.90;;;;;;4942399;29;20192;-81
2022/01/16 02:33:22;;;;;;;77.57;38.57;;;-0.70;99.90;;;;;;4942363;29;20204;-83
2022/01/16 02:35:47;;;;;;;80.67;39.43;;;-0.60;99.90;;;;;;4942402;29;20205;-82
2022/01/16 02:38:13;;;;;;;80.60;39.73;;;-0.60;99.90;;;;;;4924308;29;20174;-82
2022/01/16 02:40:44;;;;;;;77.10;39.17;;;-0.60;99.90;;;;;;4924819;29;20186;-82
2022/01/16 02:43:09;;;;;;;71.23;36.43;;;-0.50;99.90;;;;;;4941496;29;20217;-82
2022/01/16 02:45:37;;;;;;;72.17;37.20;;;-0.50;99.90;;;;;;4941709;29;20212;-81
2022/01/16 02:48:06;;;;;;;71.40;36.63;;;-0.50;99.90;;;;;;4925308;29;20305;-81
2022/01/16 02:50:33;;;;;;;70.53;37.20;;;-0.50;99.90;;;;;;4942178;29;20810;-78
2022/01/16 02:53:00;;;;;;;72.60;37.30;;;-0.50;99.90;;;;;;4924133;29;20300;-80
2022/01/16 02:55:26;;;;;;;74.37;38.57;;;-0.50;99.90;;;;;;4941861;29;20206;-82
2022/01/16 02:57:54;;;;;;;67.20;36.43;;;-0.40;99.90;;;;;;4941429;29;20192;-82
2022/01/16 03:00:22;;;;;;;65.67;34.37;;;-0.50;99.90;;;;;;4941191;29;20233;-82
2022/01/16 03:02:49;;;;;;;73.03;36.43;;;-0.50;99.90;;;;;;4941664;29;20204;-81
2022/01/16 03:05:15;;;;;;;68.13;34.77;;;-0.60;99.90;;;;;;4941448;29;20204;-82
2022/01/16 03:07:42;;;;;;;72.83;36.27;;;-0.70;99.90;;;;;;4942204;29;20192;-80
2022/01/16 03:12:49;;;;;;;69.00;36.37;;;-0.60;99.90;;;;;;4943238;29;20919;-82
2022/01/16 03:15:16;;;;;;;65.40;34.97;;;-0.60;99.90;;;;;;4941777;29;20559;-82
2022/01/16 03:23:12;;;;;;;68.37;35.67;;;-0.60;99.90;;;;;;4941915;29;20209;-82
2022/01/16 03:25:38;;;;;;;64.20;34.53;;;-0.50;99.90;;;;;;4952743;28;20295;-81
2022/01/16 03:28:04;;;;;;;62.37;33.43;;;-0.50;99.90;;;;;;4938404;29;20184;-81
2022/01/16 03:30:30;;;;;;;70.30;34.63;;;-0.40;99.90;;;;;;4939604;29;20185;-82
2022/01/16 03:32:55;;;;;;;70.27;35.00;;;-0.40;99.90;;;;;;4957441;29;20247;-82
2022/01/16 03:35:22;;;;;;;66.27;33.67;;;-0.50;99.90;;;;;;4959704;28;20200;-82
2022/01/16 03:37:48;;;;;;;78.77;37.30;;;-0.70;99.90;;;;;;4955978;29;20621;-81
2022/01/16 03:40:14;;;;;;;72.73;35.70;;;-0.50;99.90;;;;;;4938263;29;20196;-81
2022/01/16 03:42:40;;;;;;;75.03;36.60;;;-0.90;99.90;;;;;;4941677;29;20240;-81
2022/01/16 03:45:08;;;;;;;75.03;36.20;;;-0.90;99.90;;;;;;4955167;28;20280;-81
2022/01/16 03:47:34;;;;;;;75.57;37.07;;;-0.80;99.90;;;;;;4957437;28;20193;-81
2022/01/16 03:50:01;;;;;;;76.93;36.30;;;-0.90;99.90;;;;;;4959200;29;20637;-81
2022/01/16 03:52:26;;;;;;;76.70;38.37;;;-0.90;99.90;;;;;;4940130;29;20729;-81
2022/01/16 03:54:52;;;;;;;73.63;35.03;;;-0.90;99.90;;;;;;4961254;28;20235;-81
2022/01/16 03:57:18;;;;;;;78.23;38.50;;;-0.90;99.90;;;;;;4944157;29;20209;-81
2022/01/16 03:59:43;;;;;;;73.70;37.20;;;-0.80;99.90;;;;;;4959759;28;20190;-82
2022/01/16 04:02:09;;;;;;;82.53;39.83;;;-0.90;99.90;;;;;;4952158;29;20564;-81
2022/01/16 04:04:35;;;;;;;74.20;37.70;;;-0.80;99.90;;;;;;4940210;28;20747;-82
2022/01/16 04:07:01;;;;;;;79.93;36.53;;;-0.80;99.90;;;;;;4932856;29;20185;-80
2022/01/16 04:09:27;;;;;;;76.17;36.77;;;-0.70;99.90;;;;;;4932782;29;20193;-81
2022/01/16 04:11:56;;;;;;;73.17;36.33;;;-0.80;99.90;;;;;;4956954;29;20267;-81
2022/01/16 04:15:31;;;;;;;79.00;36.63;;;-0.80;99.90;;;;;;4935150;29;20182;-80
2022/01/16 04:17:20;;;;;;;74.00;37.03;;;-0.90;99.90;;;;;;4952180;29;20204;-82
2022/01/16 04:19:47;;;;;;;89.80;39.33;;;-1.00;99.90;;;;;;4925578;29;20184;-82
2022/01/16 04:22:13;;;;;;;78.43;38.40;;;-1.30;99.90;;;;;;4941108;29;20180;-82
2022/01/16 04:24:39;;;;;;;81.33;38.17;;;-1.00;99.90;;;;;;4941095;29;20208;-81
2022/01/16 04:27:05;;;;;;;75.40;37.30;;;-0.90;99.90;;;;;;4941865;29;20185;-82
2022/01/16 04:29:31;;;;;;;76.50;35.23;;;-0.80;99.90;;;;;;4924606;29;20186;-82
2022/01/16 04:31:57;;;;;;;74.03;35.13;;;-0.80;99.90;;;;;;4940006;29;20212;-82
2022/01/16 04:34:22;;;;;;;73.57;35.77;;;-0.80;99.90;;;;;;4939934;29;20192;-81
2022/01/16 04:36:48;;;;;;;72.83;33.87;;;-0.80;99.90;;;;;;4939972;29;20186;-81
2022/01/16 04:39:17;;;;;;;72.10;34.70;;;-0.70;99.90;;;;;;4924003;29;20192;-82
2022/01/16 04:44:27;;;;;;;67.17;33.10;;;-0.70;99.90;;;;;;4958388;28;20264;-82
2022/01/16 04:46:53;;;;;;;65.57;33.60;;;-0.60;99.90;;;;;;4968309;29;20196;-81
2022/01/16 04:49:19;;;;;;;72.13;35.13;;;-0.60;99.90;;;;;;4960853;29;20189;-82
2022/01/16 04:51:45;;;;;;;71.03;34.00;;;-0.60;99.90;;;;;;4949721;29;20253;-80
2022/01/16 04:54:10;;;;;;;69.80;35.70;;;-0.70;99.90;;;;;;4944407;29;20220;-80
2022/01/16 04:56:36;;;;;;;59.47;32.40;;;-0.70;99.90;;;;;;4926324;29;20256;-81
2022/01/16 04:59:02;;;;;;;63.57;33.07;;;-0.60;99.90;;;;;;4943747;29;20181;-81
2022/01/16 05:01:28;;;;;;;69.27;34.87;;;-0.60;99.90;;;;;;4925836;29;20208;-82
2022/01/16 05:03:53;;;;;;;64.03;31.80;;;-0.70;99.90;;;;;;4943008;29;20185;-81
2022/01/16 05:06:20;;;;;;;73.00;33.93;;;-0.70;99.90;;;;;;4929690;29;20212;-81
2022/01/16 05:08:46;;;;;;;68.53;33.43;;;-0.70;99.90;;;;;;4929567;29;20202;-80
2022/01/16 05:11:14;;;;;;;66.60;32.47;;;-0.60;99.90;;;;;;4942403;29;20547;-81
2022/01/16 05:18:52;;;;;;;67.40;31.30;;;-0.70;99.90;;;;;;4951057;28;20210;-83
2022/01/16 05:21:18;;;;;;;67.50;32.57;;;-0.50;99.90;;;;;;4944051;29;20186;-82
2022/01/16 05:23:44;;;;;;;65.27;30.93;;;-0.60;99.90;;;;;;4936592;29;20185;-82
2022/01/16 05:26:11;;;;;;;68.70;33.97;;;-0.60;99.90;;;;;;4951494;29;20283;-82
2022/01/16 05:28:37;;;;;;;68.03;32.37;;;-0.70;99.90;;;;;;4938657;29;20268;-80
2022/01/16 05:31:03;;;;;;;67.93;34.00;;;-0.70;99.90;;;;;;4937950;29;20177;-81
2022/01/16 05:33:29;;;;;;;69.23;34.20;;;-0.70;99.90;;;;;;4955595;29;20204;-82
2022/01/16 05:35:55;;;;;;;68.87;32.77;;;-0.70;99.90;;;;;;4957633;29;20206;-82
2022/01/16 05:38:21;;;;;;;66.47;32.00;;;-0.80;99.90;;;;;;4937864;29;20177;-81
2022/01/16 05:40:47;;;;;;;68.77;31.90;;;-0.70;99.90;;;;;;4950612;28;20187;-81
2022/01/16 05:43:13;;;;;;;66.47;33.13;;;-0.70;99.90;;;;;;4958839;28;20281;-81
2022/01/16 05:45:39;;;;;;;65.70;32.43;;;-0.70;99.90;;;;;;4961005;28;20208;-83
2022/01/16 05:48:04;;;;;;;66.33;33.27;;;-0.70;99.90;;;;;;4942855;29;20207;-82
2022/01/16 05:50:31;;;;;;;67.33;32.77;;;-0.70;99.90;;;;;;4957680;28;20185;-81
2022/01/16 05:53:01;;;;;;;68.47;33.30;;;-0.80;99.90;;;;;;4957476;29;20563;-82
2022/01/16 05:55:36;;;;;;;78.27;35.97;;;-0.70;99.90;;;;;;4954594;28;20208;-81
2022/01/16 05:58:02;;;;;;;66.17;32.67;;;-0.70;99.90;;;;;;4932211;29;20177;-81
2022/01/16 06:00:30;;;;;;;67.73;32.87;;;-0.80;99.90;;;;;;4954243;29;20174;-82
2022/01/16 06:02:56;;;;;;;73.17;34.30;;;-0.80;99.90;;;;;;4956729;29;20191;-82
2022/01/16 06:05:22;;;;;;;69.63;32.37;;;-0.90;99.90;;;;;;4933550;29;20199;-80
2022/01/16 06:07:53;;;;;;;74.47;34.13;;;-0.90;99.90;;;;;;4949377;29;20193;-80
2022/01/16 06:10:19;;;;;;;80.23;35.80;;;-0.90;99.90;;;;;;4930366;29;20555;-81
2022/01/16 06:12:45;;;;;;;77.57;34.07;;;-0.90;99.90;;;;;;4948264;29;20214;-82
2022/01/16 06:15:11;;;;;;;71.37;34.67;;;-0.90;99.90;;;;;;4956179;28;20657;-81
2022/01/16 06:17:36;;;;;;;70.27;34.17;;;-0.80;99.90;;;;;;4955717;29;20200;-81
2022/01/16 06:20:04;;;;;;;73.90;34.53;;;-0.90;99.90;;;;;;4950823;29;20618;-81
2022/01/16 06:22:29;;;;;;;75.90;36.97;;;-0.90;99.90;;;;;;4924434;29;20193;-81
2022/01/16 06:24:55;;;;;;;75.30;35.60;;;-0.90;99.90;;;;;;4941360;29;20759;-81
2022/01/16 06:27:20;;;;;;;76.73;34.33;;;-0.90;99.90;;;;;;4939632;29;20245;-80
2022/01/16 06:29:46;;;;;;;68.80;33.93;;;-0.80;99.90;;;;;;4939629;29;20224;-80
2022/01/16 06:32:12;;;;;;;72.37;34.23;;;-0.80;99.90;;;;;;4943478;29;20249;-81
2022/01/16 06:34:37;;;;;;;77.90;35.30;;;-0.90;99.90;;;;;;4925727;29;20194;-81
2022/01/16 06:37:04;;;;;;;76.17;34.67;;;-0.90;99.90;;;;;;4945248;29;20200;-81
2022/01/16 06:39:29;;;;;;;75.40;35.90;;;-0.90;99.90;;;;;;4926311;29;20173;-83
2022/01/16 06:41:56;;;;;;;72.30;34.17;;;-0.80;99.90;;;;;;4941143;29;20536;-82
2022/01/16 06:44:22;;;;;;;68.27;33.97;;;-0.90;99.90;;;;;;4940901;29;20190;-81
2022/01/16 06:46:48;;;;;;;78.23;34.73;;;-0.80;99.90;;;;;;4941043;29;20271;-82
2022/01/16 06:49:13;;;;;;;73.67;34.63;;;-1.00;99.90;;;;;;4940875;29;20209;-81
2022/01/16 06:51:39;;;;;;;75.13;34.67;;;-1.10;99.90;;;;;;4941444;29;20233;-82
2022/01/16 06:54:05;;;;;;;75.77;35.77;;;-1.00;99.90;;;;;;4941671;29;20179;-82
2022/01/16 06:56:31;;;;;;;71.03;34.30;;;-1.10;99.90;;;;;;4924787;29;20195;-81
2022/01/16 06:58:58;;;;;;;70.30;34.17;;;-1.20;99.90;;;;;;4941549;29;20179;-82
2022/01/16 07:01:23;;;;;;;79.63;34.80;;;-1.20;99.90;;;;;;4923652;29;20186;-81
2022/01/16 07:03:50;;;;;;;82.67;36.13;;;-1.30;99.90;;;;;;4941379;29;20188;-81
2022/01/16 07:06:16;;;;;;;79.40;36.23;;;-1.30;99.90;;;;;;4942287;29;20208;-83
2022/01/16 07:08:42;;;;;;;79.93;35.90;;;-1.20;99.90;;;;;;4941150;29;20624;-82
2022/01/16 07:11:08;;;;;;;80.73;38.53;;;-1.20;99.90;;;;;;4925273;29;20263;-81
2022/01/16 07:13:34;;;;;;;80.60;37.90;;;-1.20;99.90;;;;;;4940748;29;20603;-81
2022/01/16 07:16:00;;;;;;;72.57;34.93;;;-1.10;99.90;;;;;;4940649;29;20214;-82
2022/01/16 07:18:27;;;;;;;82.03;35.97;;;-1.10;99.90;;;;;;4923284;29;20224;-81
2022/01/16 07:20:54;;;;;;;77.73;35.97;;;-1.00;99.90;;;;;;4940279;29;20184;-82
2022/01/16 07:23:20;;;;;;;71.67;35.17;;;-1.00;99.90;;;;;;4923838;29;20313;-80
2022/01/16 07:25:45;;;;;;;72.43;34.27;;;-1.00;99.90;;;;;;4940013;29;20260;-81
2022/01/16 07:28:11;;;;;;;79.27;37.90;;;-1.10;99.90;;;;;;4930544;29;20184;-81
2022/01/16 07:30:38;;;;;;;80.27;35.47;;;-1.00;99.90;;;;;;4951889;29;20205;-82
2022/01/16 07:33:05;;;;;;;81.73;37.23;;;-1.00;99.90;;;;;;4953791;29;20253;-80
2022/01/16 07:35:31;;;;;;;75.00;36.67;;;-1.00;99.90;;;;;;4934978;29;20204;-82
2022/01/16 07:37:57;;;;;;;76.83;37.43;;;-1.00;99.90;;;;;;4934861;29;20184;-81
2022/01/16 07:40:24;;;;;;;78.80;36.20;;;-1.00;99.90;;;;;;4953669;29;20184;-81
2022/01/16 07:42:51;;;;;;;78.27;36.77;;;-1.00;99.90;;;;;;4949166;29;20181;-82
2022/01/16 07:45:17;;;;;;;74.23;36.33;;;-0.90;99.90;;;;;;4935180;29;20211;-80
2022/01/16 07:47:43;;;;;;;75.50;35.80;;;-0.80;99.90;;;;;;4953580;29;20215;-82
2022/01/16 07:50:09;;;;;;;72.93;33.90;;;-0.80;99.90;;;;;;4954318;29;20180;-82
2022/01/16 07:52:35;;;;;;;70.37;36.23;;;-0.80;99.90;;;;;;4937526;29;20200;-82
2022/01/16 07:55:01;;;;;;;72.00;35.00;;;-0.80;99.90;;;;;;4925338;29;20285;-81
2022/01/16 07:57:27;;;;;;;86.37;41.67;;;-0.80;99.90;;;;;;4950448;29;20729;-82
2022/01/16 07:59:52;;;;;;;72.00;35.63;;;-0.70;99.90;;;;;;4941678;29;20277;-80
2022/01/16 08:02:18;;;;;;;74.30;35.33;;;-0.80;99.90;;;;;;4952534;29;20192;-81
2022/01/16 08:04:44;;;;;;;74.27;35.10;;;-0.10;99.90;;;;;;4954110;28;20296;-80
2022/01/16 08:07:10;;;;;;;72.37;35.20;;;-0.70;99.90;;;;;;4958886;29;20252;-81
2022/01/16 08:09:40;;;;;;;68.77;33.80;;;-0.70;99.90;;;;;;4948309;29;20190;-81
2022/01/16 08:12:18;;;;;;;71.07;34.13;;;-0.60;99.90;;;;;;4960108;29;20201;-85
2022/01/16 08:14:44;;;;;;;62.27;32.40;;;-0.60;99.90;;;;;;4960169;28;20657;-81
2022/01/16 08:17:10;;;;;;;69.20;33.10;;;-0.60;99.90;;;;;;4940375;28;20275;-82
2022/01/16 08:19:36;;;;;;;72.10;33.47;;;-0.60;99.90;;;;;;4942099;29;20220;-81
2022/01/16 08:22:01;;;;;;;65.60;32.77;;;-0.60;99.90;;;;;;4947855;29;20191;-81
2022/01/16 08:24:27;;;;;;;62.80;30.23;;;-0.50;99.90;;;;;;4943161;28;20189;-80
2022/01/16 08:26:53;;;;;;;70.70;34.87;;;-0.50;99.90;;;;;;4950039;29;20217;-81
2022/01/16 08:29:21;;;;;;;64.93;31.30;;;-0.40;99.90;;;;;;4951386;29;20180;-80
2022/01/16 08:31:47;;;;;;;60.20;32.30;;;-0.40;99.90;;;;;;4946251;28;20627;-81
2022/01/16 08:34:12;;;;;;;64.27;31.67;;;-0.50;99.90;;;;;;4950852;29;20178;-81
2022/01/16 08:36:38;;;;;;;63.30;32.20;;;-0.40;99.90;;;;;;4947690;29;20194;-81
2022/01/16 08:39:04;;;;;;;69.13;33.10;;;-0.40;99.90;;;;;;4925549;29;20192;-82
2022/01/16 08:41:30;;;;;;;64.83;32.37;;;-0.40;99.90;;;;;;4954096;28;20185;-81
2022/01/16 08:43:56;;;;;;;67.70;33.03;;;-0.40;99.90;;;;;;4945113;29;20186;-81
2022/01/16 08:46:23;;;;;;;66.93;32.43;;;-0.40;99.90;;;;;;4932916;29;20225;-81
2022/01/16 08:48:50;;;;;;;71.93;34.17;;;-0.40;99.90;;;;;;4933719;29;20268;-81
2022/01/16 08:51:16;;;;;;;65.13;32.63;;;-0.40;99.90;;;;;;4953911;29;20201;-82
2022/01/16 08:53:41;;;;;;;67.70;32.63;;;-0.30;99.90;;;;;;4943903;29;20206;-83
2022/01/16 08:56:08;;;;;;;67.13;33.27;;;-0.30;99.90;;;;;;4943481;29;20288;-81
2022/01/16 08:58:33;;;;;;;68.47;32.50;;;-0.30;99.90;;;;;;4947128;29;20193;-81
2022/01/16 09:00:59;;;;;;;60.07;31.50;;;-0.30;99.90;;;;;;4951414;29;20189;-82
2022/01/16 09:03:25;;;;;;;67.60;32.00;;;-0.20;99.90;;;;;;4945066;29;20188;-80
2022/01/16 09:05:52;;;;;;;62.87;31.33;;;-0.20;99.90;;;;;;4960186;28;20205;-80
2022/01/16 09:08:18;;;;;;;64.70;31.23;;;-0.20;99.90;;;;;;4944326;29;20181;-80
2022/01/16 09:10:45;;;;;;;68.53;31.23;;;-0.10;99.90;;;;;;4941567;29;20200;-82
2022/01/16 09:13:15;;;;;;;65.93;31.60;;;0.70;99.90;;;;;;4932482;29;20207;-81
2022/01/16 09:15:47;;;;;;;62.90;31.40;;;-0.40;99.90;;;;;;4943841;29;20197;-80
2022/01/16 09:18:14;;;;;;;58.83;29.73;;;-0.40;99.90;;;;;;4943233;29;20201;-81
2022/01/16 09:20:39;;;;;;;63.20;31.23;;;-0.40;99.90;;;;;;4932596;29;20174;-80
2022/01/16 09:23:06;;;;;;;62.63;30.97;;;-0.30;99.90;;;;;;4928689;29;20195;-82
2022/01/16 09:25:32;;;;;;;64.53;31.00;;;-0.20;99.90;;;;;;4962633;28;20198;-83
2022/01/16 09:27:58;;;;;;;65.70;30.80;;;0.20;99.90;;;;;;4952814;29;20209;-83
2022/01/16 09:30:24;;;;;;;63.50;30.93;;;0.80;99.90;;;;;;4945698;29;20181;-81
2022/01/16 09:32:51;;;;;;;63.40;31.53;;;-0.10;99.90;;;;;;4943172;29;20240;-82
2022/01/16 09:35:17;;;;;;;60.37;29.97;;;-0.10;99.90;;;;;;4942745;29;20205;-82
2022/01/16 09:37:44;;;;;;;63.57;31.40;;;0.00;99.90;;;;;;4942988;29;20173;-82
2022/01/16 09:40:13;;;;;;;63.40;30.40;;;0.00;99.90;;;;;;4955527;29;20169;-83
2022/01/16 09:42:39;;;;;;;57.27;29.97;;;0.00;99.90;;;;;;4926333;29;20178;-82
2022/01/16 09:45:07;;;;;;;60.70;31.90;;;0.00;99.90;;;;;;4925957;29;20209;-82
2022/01/16 09:47:33;;;;;;;60.80;29.53;;;0.10;99.90;;;;;;4942160;29;20268;-82
2022/01/16 09:49:59;;;;;;;57.63;29.07;;;0.10;99.90;;;;;;4942362;29;20224;-82
2022/01/16 09:52:25;;;;;;;61.73;30.30;;;0.10;99.90;;;;;;4942593;29;20206;-82
2022/01/16 09:54:50;;;;;;;57.00;28.87;;;0.10;99.90;;;;;;4929977;29;20268;-81
2022/01/16 09:57:16;;;;;;;56.67;30.13;;;0.80;99.90;;;;;;4964547;29;20181;-83
2022/01/16 09:59:45;;;;;;;59.67;29.70;;;0.20;99.90;;;;;;4954861;29;20738;-82
2022/01/16 10:02:11;;;;;;;61.83;29.77;;;0.30;99.90;;;;;;4964785;28;20177;-82
2022/01/16 10:04:38;;;;;;;66.43;33.03;;;0.30;99.90;;;;;;4930113;29;20178;-82
2022/01/16 10:07:07;;;;;;;54.50;28.50;;;0.40;99.90;;;;;;4944438;29;20186;-83
2022/01/16 10:09:38;;;;;;;60.30;30.57;;;0.40;99.90;;;;;;4943128;29;20190;-83
2022/01/16 10:12:14;;;;;;;57.27;29.10;;;0.50;99.90;;;;;;4919384;29;20293;-82
2022/01/16 10:14:47;;;;;;;55.33;28.23;;;0.50;99.90;;;;;;4922059;29;20193;-83
2022/01/16 10:17:25;;;;;;;53.30;27.43;;;0.50;99.90;;;;;;4930234;29;20192;-82
2022/01/16 10:20:05;;;;;;;57.10;28.80;;;0.70;99.90;;;;;;4927922;29;20647;-81
2022/01/16 10:22:39;;;;;;;56.73;28.63;;;0.60;99.90;;;;;;4942584;29;20204;-83
2022/01/16 10:25:06;;;;;;;53.03;27.53;;;0.70;99.90;;;;;;4942594;29;20230;-82
2022/01/16 10:27:39;;;;;;;58.87;27.90;;;0.80;99.90;;;;;;4958506;29;20188;-81
2022/01/16 10:30:09;;;;;;;52.27;27.07;;;1.10;99.90;;;;;;4944508;29;20614;-83
2022/01/16 10:32:44;;;;;;;51.27;26.47;;;1.00;99.90;;;;;;4925021;29;20221;-82
2022/01/16 10:35:17;;;;;;;51.60;27.10;;;1.00;99.90;;;;;;4945529;29;20197;-83
2022/01/16 10:37:47;;;;;;;54.10;26.83;;;1.10;99.90;;;;;;4940721;29;20198;-82
2022/01/16 10:40:16;;;;;;;47.63;26.40;;;1.20;99.90;;;;;;4946030;29;20275;-81
2022/01/16 10:42:50;;;;;;;49.30;25.33;;;1.40;99.90;;;;;;4938790;29;20933;-83
2022/01/16 10:45:20;;;;;;;51.80;27.57;;;1.40;99.90;;;;;;4944102;29;20610;-83
2022/01/16 10:47:54;;;;;;;48.47;25.23;;;1.40;99.90;;;;;;4924597;29;20527;-83
2022/01/16 10:50:46;;;;;;;44.03;24.53;;;1.40;99.90;;;;;;4941334;29;20269;-83
2022/01/16 10:53:15;;;;;;;48.80;25.17;;;1.40;99.90;;;;;;4940377;29;20205;-83
2022/01/16 10:55:49;;;;;;;50.10;26.00;;;1.50;99.90;;;;;;4929380;29;20276;-82
2022/01/16 10:58:16;;;;;;;53.30;25.93;;;1.60;99.90;;;;;;4934470;29;20544;-83
2022/01/16 11:00:53;;;;;;;48.13;25.13;;;1.70;99.90;;;;;;4923786;29;20195;-83
2022/01/16 11:03:20;;;;;;;43.73;23.93;;;1.70;99.90;;;;;;4928448;29;20175;-83
2022/01/16 11:05:50;;;;;;;46.37;24.13;;;1.70;99.90;;;;;;4906803;29;20216;-82
2022/01/16 11:08:18;;;;;;;44.10;23.90;;;1.90;99.90;;;;;;4921451;29;20298;-82
2022/01/16 11:10:56;;;;;;;44.03;24.43;;;2.20;99.90;;;;;;5060692;27;1353386;-82
2022/01/16 11:13:29;;;;;;;46.37;23.63;;;2.10;99.90;;;;;;5091525;28;20270;-82
2022/01/16 11:15:58;;;;;;;44.70;23.80;;;2.30;99.90;;;;;;5080987;28;20275;-82
2022/01/16 11:18:25;;;;;;;44.80;21.97;;;2.30;99.90;;;;;;5074503;28;20180;-82
2022/01/16 11:21:13;;;;;;;42.03;22.53;;;3.70;99.90;;;;;;5094107;28;20181;-84
2022/01/16 11:23:49;;;;;;;41.57;21.83;;;3.90;99.90;;;;;;5088237;28;21799;-82
2022/01/16 11:26:20;;;;;;;39.27;22.13;;;2.90;99.90;;;;;;5075875;28;20196;-83
2022/01/16 11:28:46;;;;;;;35.07;20.07;;;4.00;99.90;;;;;;5076900;28;20240;-83
2022/01/16 11:31:13;;;;;;;39.63;21.07;;;3.10;99.90;;;;;;5076488;28;20637;-83
2022/01/16 11:33:40;;;;;;;37.30;20.47;;;2.60;99.90;;;;;;5073389;28;20173;-83
2022/01/16 11:36:07;;;;;;;41.97;21.93;;;2.90;99.90;;;;;;5091500;28;20205;-83
2022/01/16 11:38:42;;;;;;;39.47;21.57;;;2.70;99.90;;;;;;5077492;28;20181;-83
2022/01/16 11:41:13;;;;;;;36.73;19.83;;;2.80;99.90;;;;;;5094897;28;20649;-82
2022/01/16 11:44:22;;;;;;;37.97;20.23;;;2.90;99.90;;;;;;5101572;28;20172;-82
2022/01/16 11:57:20;;;;;;;36.43;19.77;;;3.20;99.90;;;;;;3166868;22;20256;-83
2022/01/16 11:59:48;;;;;;;38.57;19.93;;;3.30;99.90;;;;;;5072532;28;20181;-83
2022/01/16 12:02:15;;;;;;;34.63;19.90;;;3.40;99.90;;;;;;5061266;28;20177;-83
2022/01/16 12:04:43;;;;;;;34.70;17.90;;;3.40;99.90;;;;;;5051547;28;20293;-83
2022/01/16 12:07:19;;;;;;;29.00;16.97;;;3.50;99.90;;;;;;5056444;28;20491;-83
2022/01/16 12:12:19;;;;;;;27.87;16.07;;;3.60;99.90;;;;;;5077083;28;20186;-85
2022/01/16 12:15:04;;;;;;;33.00;18.17;;;3.60;99.90;;;;;;5055883;28;20217;-83
2022/01/16 12:25:17;;;;;;;30.47;17.70;;;4.30;99.90;;;;;;4947532;29;20171;-83
2022/01/16 12:28:22;;;;;;;37.40;17.00;;;4.20;99.90;;;;;;4930786;29;20669;-82
2022/01/16 12:30:56;;;;;;;29.73;17.23;;;3.90;99.90;;;;;;4939615;29;20221;-83
2022/01/16 12:33:46;;;;;;;33.20;17.40;;;3.70;99.90;;;;;;5025435;28;20184;-82
2022/01/16 12:43:04;;;;;;;29.53;15.23;;;3.80;99.90;;;;;;4996656;28;20213;-80
2022/01/16 12:45:39;;;;;;;27.37;15.97;;;4.00;99.90;;;;;;5004500;28;20192;-82
2022/01/16 12:48:07;;;;;;;28.70;15.77;;;3.90;99.90;;;;;;5005620;28;20183;-82
2022/01/16 12:50:34;;;;;;;25.50;14.87;;;4.40;99.90;;;;;;5055204;28;20244;-82
2022/01/16 12:53:08;;;;;;;26.43;15.90;;;4.00;99.90;;;;;;5059517;28;20192;-82
2022/01/16 12:56:01;;;;;;;24.97;15.07;;;4.60;99.90;;;;;;5060002;28;20562;-82
2022/01/16 12:58:27;;;;;;;22.93;13.53;;;4.10;99.90;;;;;;5042085;28;20582;-82
2022/01/16 13:01:04;;;;;;;22.10;13.27;;;5.00;99.90;;;;;;5043140;28;20186;-83
2022/01/16 13:03:34;;;;;;;22.70;14.10;;;4.00;99.90;;;;;;5058357;28;20226;-83
2022/01/16 13:06:26;;;;;;;25.20;13.87;;;3.90;99.90;;;;;;5043159;28;20202;-82
2022/01/16 13:09:11;;;;;;;20.27;12.73;;;3.90;99.90;;;;;;5037264;28;20204;-83
2022/01/16 13:11:38;;;;;;;20.73;12.80;;;3.80;99.90;;;;;;5056767;28;20208;-83
2022/01/16 13:14:07;;;;;;;23.63;13.70;;;3.90;99.90;;;;;;5046223;28;21128;-83
2022/01/16 13:16:36;;;;;;;22.60;13.60;;;4.00;99.90;;;;;;5049054;28;20204;-81
2022/01/16 13:19:07;;;;;;;22.97;13.10;;;3.90;99.90;;;;;;5043108;28;20190;-82
2022/01/16 13:22:04;;;;;;;21.20;12.57;;;3.90;99.90;;;;;;5059708;28;20190;-81
2022/01/16 13:24:49;;;;;;;22.00;12.70;;;3.90;99.90;;;;;;5060659;28;20188;-83
2022/01/16 13:27:23;;;;;;;20.90;13.33;;;4.00;99.90;;;;;;5041877;28;20204;-82
2022/01/16 13:29:51;;;;;;;21.57;12.47;;;4.00;99.90;;;;;;5042510;28;20234;-83
2022/01/16 13:32:19;;;;;;;17.73;12.17;;;4.10;99.90;;;;;;5037748;28;20260;-83
2022/01/16 13:34:54;;;;;;;19.97;11.37;;;4.20;99.90;;;;;;5036262;28;20207;-84
2022/01/16 13:37:26;;;;;;;17.40;10.97;;;4.20;99.90;;;;;;5031312;28;20214;-82
2022/01/16 13:40:10;;;;;;;21.47;11.90;;;4.30;99.90;;;;;;5058804;28;20187;-83
2022/01/16 13:42:49;;;;;;;20.27;11.87;;;4.30;99.90;;;;;;5035150;28;20259;-82
2022/01/16 13:45:32;;;;;;;15.70;10.73;;;4.30;99.90;;;;;;5038494;28;20207;-82
2022/01/16 13:48:06;;;;;;;17.20;10.60;;;4.30;99.90;;;;;;5057822;28;20681;-82
2022/01/16 13:50:37;;;;;;;16.87;10.60;;;4.40;99.90;;;;;;5057798;28;20198;-82